Time;durP1;ratioP1;P1;durP2;ratioP2;P2;SDS_P1;SDS_P2;PMS_P1;PMS_P2;Temp;Humidity;BMP_temperature;BMP_pressure;BME280_temperature;BME280_humidity;BME280_pressure;Samples;Min_cycle;Max_cycle;Signal;HPM_P1;HPM_P2
2022/11/14 00:01:31;;;;;;;81.30;18.60;;;4.50;99.90;;;;;;5070157;28;20033;-79
2022/11/14 00:03:57;;;;;;;33.20;17.87;;;4.50;99.90;;;;;;5078317;28;20032;-79
2022/11/14 00:06:22;;;;;;;118.93;20.97;;;4.50;99.90;;;;;;5090805;28;20060;-80
2022/11/14 00:08:48;;;;;;;125.77;21.17;;;4.50;99.90;;;;;;5083238;28;20036;-79
2022/11/14 00:11:13;;;;;;;138.27;21.03;;;4.50;99.90;;;;;;5069966;28;20466;-79
2022/11/14 00:13:39;;;;;;;111.77;20.43;;;4.50;99.90;;;;;;5075045;28;20047;-79
2022/11/14 00:16:05;;;;;;;138.43;22.23;;;4.50;99.90;;;;;;5090205;28;20024;-79
2022/11/14 00:18:30;;;;;;;35.70;19.77;;;4.50;99.90;;;;;;5085600;28;20032;-79
2022/11/14 00:20:56;;;;;;;29.03;19.87;;;4.50;99.90;;;;;;5069895;28;20032;-79
2022/11/14 00:23:21;;;;;;;45.53;19.57;;;4.50;99.90;;;;;;5071013;28;20029;-79
2022/11/14 00:25:50;;;;;;;76.10;19.97;;;4.50;99.90;;;;;;5090240;28;20504;-79
2022/11/14 00:28:16;;;;;;;44.43;19.53;;;4.50;99.90;;;;;;5088815;28;20032;-79
2022/11/14 00:30:44;;;;;;;59.23;20.03;;;4.40;99.90;;;;;;5069953;28;20020;-79
2022/11/14 00:33:10;;;;;;;78.77;19.17;;;4.40;99.90;;;;;;5069777;28;20024;-79
2022/11/14 00:35:35;;;;;;;82.63;19.47;;;4.50;99.90;;;;;;5049744;28;20031;-80
2022/11/14 00:38:01;;;;;;;92.53;19.33;;;4.40;99.90;;;;;;5066125;28;20029;-79
2022/11/14 00:40:27;;;;;;;42.47;19.33;;;4.50;99.90;;;;;;5088531;28;20090;-79
2022/11/14 00:42:52;;;;;;;74.00;19.17;;;4.50;99.90;;;;;;5090019;28;20038;-79
2022/11/14 00:45:20;;;;;;;67.33;18.83;;;4.40;99.90;;;;;;5073392;28;20046;-79
2022/11/14 00:47:46;;;;;;;27.33;18.00;;;4.40;99.90;;;;;;5069608;28;20144;-79
2022/11/14 00:50:11;;;;;;;40.13;18.43;;;4.40;99.90;;;;;;5085135;28;20524;-79
2022/11/14 00:52:37;;;;;;;38.80;17.83;;;4.40;99.90;;;;;;5089358;28;20030;-79
2022/11/14 00:55:03;;;;;;;66.40;19.03;;;4.40;99.90;;;;;;5073365;28;20028;-79
2022/11/14 00:57:29;;;;;;;22.03;16.83;;;4.40;99.90;;;;;;5069687;28;20415;-79
2022/11/14 00:59:54;;;;;;;39.73;17.90;;;4.40;99.90;;;;;;5082681;28;20036;-79
2022/11/14 01:02:20;;;;;;;47.83;16.33;;;4.40;99.90;;;;;;5091344;28;20516;-79
2022/11/14 01:04:46;;;;;;;33.80;15.53;;;4.40;99.90;;;;;;5083044;28;20516;-79
2022/11/14 01:07:11;;;;;;;60.63;15.03;;;4.40;99.90;;;;;;5073048;28;20029;-79
2022/11/14 01:09:37;;;;;;;23.13;15.93;;;4.40;99.90;;;;;;5083630;28;20667;-79
2022/11/14 01:12:02;;;;;;;56.50;15.60;;;4.30;99.90;;;;;;5076734;28;20119;-79
2022/11/14 01:14:28;;;;;;;83.13;14.47;;;4.30;99.90;;;;;;5073390;28;20028;-79
2022/11/14 01:16:54;;;;;;;54.30;13.87;;;4.20;99.90;;;;;;5073396;28;20040;-79
2022/11/14 01:19:19;;;;;;;22.40;12.87;;;4.10;99.90;;;;;;5079667;28;20047;-79
2022/11/14 01:21:45;;;;;;;30.80;12.60;;;4.10;99.90;;;;;;5093421;28;20192;-79
2022/11/14 01:24:10;;;;;;;48.23;13.03;;;4.10;99.90;;;;;;5087324;28;20025;-79
2022/11/14 01:26:36;;;;;;;82.77;13.37;;;4.00;99.90;;;;;;5072927;28;20039;-79
2022/11/14 01:29:01;;;;;;;50.17;12.33;;;3.90;99.90;;;;;;5076349;28;20047;-79
2022/11/14 01:31:27;;;;;;;47.23;12.80;;;3.90;99.90;;;;;;5093169;28;20106;-80
2022/11/14 01:33:53;;;;;;;27.70;12.30;;;3.90;99.90;;;;;;5091442;28;20029;-79
2022/11/14 01:36:20;;;;;;;25.17;12.63;;;3.90;99.90;;;;;;5073235;28;20778;-79
2022/11/14 01:38:46;;;;;;;36.33;12.03;;;3.90;99.90;;;;;;5073333;28;20117;-79
2022/11/14 01:41:14;;;;;;;75.37;12.70;;;3.90;99.90;;;;;;5074996;28;20086;-79
2022/11/14 01:43:40;;;;;;;31.97;14.00;;;3.90;99.90;;;;;;5092716;28;20031;-79
2022/11/14 01:46:24;;;;;;;59.03;13.67;;;3.80;99.90;;;;;;5072685;28;20032;-79
2022/11/14 01:48:51;;;;;;;59.37;13.07;;;3.80;99.90;;;;;;5054725;28;20179;-79
2022/11/14 01:51:23;;;;;;;71.17;12.70;;;3.80;99.90;;;;;;5092976;28;20457;-79
2022/11/14 01:53:52;;;;;;;25.77;11.93;;;3.80;99.90;;;;;;5092525;28;20084;-79
2022/11/14 01:56:24;;;;;;;73.93;12.53;;;3.80;99.90;;;;;;5052703;28;20064;-79
2022/11/14 01:58:59;;;;;;;78.43;11.30;;;3.70;99.90;;;;;;5052834;28;20033;-79
2022/11/14 02:01:26;;;;;;;14.90;11.80;;;3.70;99.90;;;;;;5055404;28;20047;-79
2022/11/14 02:03:54;;;;;;;64.33;10.83;;;3.70;99.90;;;;;;5071896;28;20036;-79
2022/11/14 02:06:22;;;;;;;138.50;12.80;;;3.70;99.90;;;;;;5092588;28;20118;-79
2022/11/14 02:08:49;;;;;;;94.33;11.43;;;3.60;99.90;;;;;;5092100;28;20032;-79
2022/11/14 02:11:15;;;;;;;55.87;10.87;;;3.60;99.90;;;;;;5092420;28;20373;-79
2022/11/14 02:13:40;;;;;;;46.57;10.00;;;3.50;99.90;;;;;;5091859;28;20028;-79
2022/11/14 02:16:06;;;;;;;56.63;9.73;;;3.50;99.90;;;;;;5074292;28;20031;-79
2022/11/14 02:18:32;;;;;;;36.23;9.30;;;3.40;99.90;;;;;;5053920;28;20487;-79
2022/11/14 02:20:57;;;;;;;35.33;9.60;;;3.40;99.90;;;;;;5088093;28;20074;-79
2022/11/14 02:23:30;;;;;;;52.73;10.27;;;3.40;99.90;;;;;;5078771;28;20405;-79
2022/11/14 02:25:57;;;;;;;23.10;10.67;;;3.30;99.90;;;;;;5086715;28;20142;-79
2022/11/14 02:28:22;;;;;;;25.30;10.83;;;3.30;99.90;;;;;;5092098;28;20024;-79
2022/11/14 02:30:48;;;;;;;26.37;11.20;;;3.30;99.90;;;;;;5092298;28;20507;-79
2022/11/14 02:33:15;;;;;;;109.80;12.33;;;3.30;99.90;;;;;;5092072;28;20419;-80
2022/11/14 02:35:41;;;;;;;63.17;12.13;;;3.30;99.90;;;;;;5080182;28;20397;-79
2022/11/14 02:38:06;;;;;;;19.67;10.23;;;3.30;99.90;;;;;;5071831;28;20090;-79
2022/11/14 02:40:32;;;;;;;38.93;11.13;;;3.30;99.90;;;;;;5071669;28;20036;-79
2022/11/14 02:42:58;;;;;;;37.13;12.50;;;3.30;99.90;;;;;;5071859;28;20034;-80
2022/11/14 02:45:24;;;;;;;15.27;12.10;;;3.30;99.90;;;;;;5071788;28;20393;-80
2022/11/14 02:47:49;;;;;;;39.87;12.80;;;3.30;99.90;;;;;;5071199;28;20491;-79
2022/11/14 02:50:16;;;;;;;21.03;12.80;;;3.30;99.90;;;;;;5071589;28;20025;-79
2022/11/14 02:52:41;;;;;;;38.73;12.53;;;3.40;99.90;;;;;;5071158;28;20021;-79
2022/11/14 02:55:07;;;;;;;47.60;12.43;;;3.30;99.90;;;;;;5071561;28;20023;-79
2022/11/14 02:57:33;;;;;;;26.53;12.20;;;3.40;99.90;;;;;;5071381;28;20507;-79
2022/11/14 02:59:58;;;;;;;16.97;12.53;;;3.40;99.90;;;;;;5071724;28;20103;-79
2022/11/14 03:02:24;;;;;;;21.03;10.97;;;3.30;99.90;;;;;;5071258;28;20044;-79
2022/11/14 03:04:50;;;;;;;39.03;12.27;;;3.40;99.90;;;;;;5071133;28;20056;-79
2022/11/14 03:07:16;;;;;;;55.23;11.87;;;3.40;99.90;;;;;;5070825;28;20053;-79
2022/11/14 03:09:41;;;;;;;38.27;12.20;;;3.30;99.90;;;;;;5070751;28;20096;-79
2022/11/14 03:12:08;;;;;;;25.23;11.07;;;3.30;99.90;;;;;;5070949;28;20063;-79
2022/11/14 03:14:33;;;;;;;16.53;11.60;;;3.30;99.90;;;;;;5070871;28;20020;-79
2022/11/14 03:16:59;;;;;;;33.20;12.33;;;3.30;99.90;;;;;;5070858;28;20039;-79
2022/11/14 03:19:25;;;;;;;35.23;11.27;;;3.30;99.90;;;;;;5071032;28;20495;-79
2022/11/14 03:21:50;;;;;;;37.67;10.83;;;3.30;99.90;;;;;;5070752;28;20496;-79
2022/11/14 03:24:16;;;;;;;59.33;11.37;;;3.30;99.90;;;;;;5070067;28;20028;-79
2022/11/14 03:26:41;;;;;;;12.07;10.00;;;3.20;99.90;;;;;;5070413;28;20106;-79
2022/11/14 03:29:07;;;;;;;51.37;10.73;;;3.20;99.90;;;;;;5070696;28;20062;-79
2022/11/14 03:31:33;;;;;;;24.97;9.97;;;3.20;99.90;;;;;;5070609;28;20024;-79
2022/11/14 03:33:58;;;;;;;16.13;9.57;;;3.20;99.90;;;;;;5070733;28;20481;-79
2022/11/14 03:36:24;;;;;;;57.37;10.83;;;3.30;99.90;;;;;;5070507;28;20032;-79
2022/11/14 03:38:49;;;;;;;13.90;10.57;;;3.30;99.90;;;;;;5070864;28;20021;-79
2022/11/14 03:41:15;;;;;;;39.67;10.10;;;3.30;99.90;;;;;;5070564;28;20028;-79
2022/11/14 03:43:40;;;;;;;111.67;10.97;;;3.20;99.90;;;;;;5070232;28;20385;-79
2022/11/14 03:46:06;;;;;;;77.20;9.53;;;3.20;99.90;;;;;;5070370;28;20024;-79
2022/11/14 03:48:32;;;;;;;42.40;8.70;;;3.10;99.90;;;;;;5070198;28;20040;-79
2022/11/14 03:50:58;;;;;;;20.73;9.33;;;3.10;99.90;;;;;;5070467;28;20105;-79
2022/11/14 03:53:23;;;;;;;50.57;8.70;;;3.10;99.90;;;;;;5070932;28;20028;-79
2022/11/14 03:55:50;;;;;;;70.83;9.10;;;3.10;99.90;;;;;;5070547;28;20025;-79
2022/11/14 03:58:15;;;;;;;41.67;9.50;;;3.00;99.90;;;;;;5070263;28;20029;-79
2022/11/14 04:00:41;;;;;;;79.83;8.93;;;3.00;99.90;;;;;;5070157;28;20105;-79
2022/11/14 04:03:07;;;;;;;123.60;10.00;;;3.00;99.90;;;;;;5069969;28;20028;-79
2022/11/14 04:05:32;;;;;;;50.23;9.80;;;3.00;99.90;;;;;;5072260;28;20029;-78
2022/11/14 04:07:58;;;;;;;59.50;8.80;;;2.90;99.90;;;;;;5072252;28;20028;-79
2022/11/14 04:10:23;;;;;;;90.80;10.83;;;2.90;99.90;;;;;;5071968;28;20032;-79
2022/11/14 04:12:51;;;;;;;56.20;9.93;;;2.90;99.90;;;;;;5072214;28;20024;-78
2022/11/14 04:15:17;;;;;;;12.83;9.33;;;2.80;99.90;;;;;;5072139;28;20031;-79
2022/11/14 04:17:44;;;;;;;67.50;9.90;;;2.80;99.90;;;;;;5072088;28;20461;-78
2022/11/14 04:20:10;;;;;;;13.70;10.03;;;2.80;99.90;;;;;;5072102;28;20350;-79
2022/11/14 04:22:36;;;;;;;32.07;8.53;;;2.80;99.90;;;;;;5072171;28;20047;-79
2022/11/14 04:25:02;;;;;;;9.47;8.50;;;2.80;99.90;;;;;;5071806;28;20029;-79
2022/11/14 04:27:27;;;;;;;51.70;9.47;;;2.80;99.90;;;;;;5072165;28;20029;-78
2022/11/14 04:29:53;;;;;;;43.10;9.60;;;2.80;99.90;;;;;;5054433;28;20021;-78
2022/11/14 04:32:18;;;;;;;16.57;8.43;;;2.80;99.90;;;;;;5071999;28;20027;-78
2022/11/14 04:34:44;;;;;;;9.70;8.40;;;2.80;99.90;;;;;;5072227;28;20103;-79
2022/11/14 04:37:09;;;;;;;16.53;9.23;;;2.80;99.90;;;;;;5075309;28;20025;-79
2022/11/14 04:39:35;;;;;;;24.23;9.53;;;2.80;99.90;;;;;;5076475;28;20032;-78
2022/11/14 04:42:01;;;;;;;14.73;9.00;;;2.80;99.90;;;;;;5076118;28;20024;-78
2022/11/14 04:44:26;;;;;;;11.27;9.70;;;2.90;99.90;;;;;;5058192;28;20020;-78
2022/11/14 04:46:52;;;;;;;11.40;9.53;;;2.90;99.90;;;;;;5075961;28;20024;-78
2022/11/14 04:49:17;;;;;;;27.30;9.67;;;2.90;99.90;;;;;;5076157;28;20028;-78
2022/11/14 04:51:43;;;;;;;19.13;8.30;;;2.90;99.90;;;;;;5076122;28;20107;-78
2022/11/14 04:54:08;;;;;;;19.23;8.70;;;2.90;99.90;;;;;;5075824;28;20031;-78
2022/11/14 04:56:34;;;;;;;10.73;9.00;;;2.80;99.90;;;;;;5076038;28;20031;-78
2022/11/14 04:59:00;;;;;;;11.27;8.77;;;2.80;99.90;;;;;;5075752;28;20473;-78
2022/11/14 05:01:25;;;;;;;42.70;9.40;;;2.80;99.90;;;;;;5075501;28;20028;-78
2022/11/14 05:03:51;;;;;;;17.73;9.43;;;2.80;99.90;;;;;;5075699;28;20038;-78
2022/11/14 05:06:17;;;;;;;15.27;9.60;;;2.80;99.90;;;;;;5075763;28;20495;-78
2022/11/14 05:08:42;;;;;;;41.83;10.67;;;2.80;99.90;;;;;;5075501;28;20029;-78
2022/11/14 05:11:14;;;;;;;72.47;11.20;;;2.70;99.90;;;;;;5075379;28;20480;-79
2022/11/14 05:13:39;;;;;;;11.07;9.30;;;2.80;99.90;;;;;;5075458;28;20025;-78
2022/11/14 05:16:05;;;;;;;24.20;10.37;;;2.70;99.90;;;;;;5075379;28;20016;-78
2022/11/14 05:18:31;;;;;;;229.63;14.10;;;2.70;99.90;;;;;;5075318;28;20035;-78
2022/11/14 05:21:00;;;;;;;28.60;10.73;;;2.70;99.90;;;;;;5072923;28;20032;-79
2022/11/14 05:23:26;;;;;;;39.30;11.63;;;2.70;99.90;;;;;;5069777;28;20060;-79
2022/11/14 05:26:03;;;;;;;16.93;10.80;;;2.70;99.90;;;;;;5072552;28;20033;-79
2022/11/14 05:28:29;;;;;;;140.10;12.97;;;2.80;99.90;;;;;;5054793;28;20472;-79
2022/11/14 05:31:03;;;;;;;92.47;11.70;;;2.80;99.90;;;;;;5072941;28;20048;-79
2022/11/14 05:33:29;;;;;;;196.93;12.73;;;2.80;99.90;;;;;;5072964;28;20033;-79
2022/11/14 05:35:54;;;;;;;55.23;10.17;;;2.80;99.90;;;;;;5073010;28;20081;-79
2022/11/14 05:38:20;;;;;;;83.20;10.70;;;2.70;99.90;;;;;;5073273;28;20123;-78
2022/11/14 05:40:45;;;;;;;47.10;9.83;;;2.70;99.90;;;;;;5074871;28;20036;-78
2022/11/14 05:43:11;;;;;;;43.33;10.63;;;2.70;99.90;;;;;;5074991;28;20024;-79
2022/11/14 05:45:36;;;;;;;26.60;10.77;;;2.70;99.90;;;;;;5074779;28;20029;-78
2022/11/14 05:48:02;;;;;;;102.83;11.07;;;2.70;99.90;;;;;;5073671;28;20076;-78
2022/11/14 05:50:28;;;;;;;82.53;10.40;;;2.70;99.90;;;;;;5074542;28;20029;-79
2022/11/14 05:52:54;;;;;;;34.13;10.30;;;2.80;99.90;;;;;;5075177;28;20087;-79
2022/11/14 05:55:20;;;;;;;109.83;12.23;;;2.70;99.90;;;;;;5074916;28;20020;-78
2022/11/14 05:57:45;;;;;;;18.60;10.17;;;2.80;99.90;;;;;;5074524;28;20125;-78
2022/11/14 06:00:12;;;;;;;27.40;10.03;;;2.80;99.90;;;;;;5074453;28;20028;-78
2022/11/14 06:02:37;;;;;;;187.43;13.43;;;2.80;99.90;;;;;;5074676;28;20181;-78
2022/11/14 06:05:03;;;;;;;61.00;13.13;;;2.80;99.90;;;;;;5074858;28;20032;-78
2022/11/14 06:07:28;;;;;;;17.63;11.83;;;2.80;99.90;;;;;;5074278;28;20064;-78
2022/11/14 06:09:54;;;;;;;71.47;11.83;;;2.90;99.90;;;;;;5054453;28;20415;-78
2022/11/14 06:12:19;;;;;;;161.73;15.50;;;2.90;99.90;;;;;;5074156;28;20409;-78
2022/11/14 06:14:45;;;;;;;41.33;14.07;;;2.90;99.90;;;;;;5074147;28;20389;-78
2022/11/14 06:17:11;;;;;;;39.57;18.13;;;3.00;99.90;;;;;;5073804;28;20025;-78
2022/11/14 06:19:36;;;;;;;35.47;17.90;;;3.00;99.90;;;;;;5073489;28;20097;-78
2022/11/14 06:22:02;;;;;;;30.10;13.27;;;3.00;99.90;;;;;;5055262;28;20113;-78
2022/11/14 06:24:27;;;;;;;37.00;13.47;;;3.10;99.90;;;;;;5074409;28;20040;-78
2022/11/14 06:26:53;;;;;;;21.40;11.93;;;3.10;99.90;;;;;;5074273;28;20106;-81
2022/11/14 06:29:19;;;;;;;17.50;13.07;;;3.10;99.90;;;;;;5046965;28;20166;-80
2022/11/14 06:31:44;;;;;;;29.80;13.93;;;3.10;99.90;;;;;;5072757;28;20028;-81
2022/11/14 06:34:11;;;;;;;56.67;15.87;;;3.10;99.90;;;;;;5069065;28;20027;-80
2022/11/14 06:36:37;;;;;;;81.93;17.47;;;3.20;99.90;;;;;;5072346;28;20009;-80
2022/11/14 06:39:02;;;;;;;20.93;15.53;;;3.20;99.90;;;;;;5072430;28;20086;-80
2022/11/14 06:41:28;;;;;;;123.33;15.80;;;3.20;99.90;;;;;;5072148;28;20024;-80
2022/11/14 06:43:54;;;;;;;46.07;13.13;;;3.20;99.90;;;;;;5072524;28;20362;-83
2022/11/14 06:46:21;;;;;;;26.77;12.53;;;3.20;99.90;;;;;;5073894;28;20044;-80
2022/11/14 06:48:47;;;;;;;34.07;16.83;;;3.20;99.90;;;;;;5092704;28;20564;-81
2022/11/14 06:51:14;;;;;;;44.70;14.77;;;3.30;99.90;;;;;;5083711;28;20043;-80
2022/11/14 06:53:41;;;;;;;42.33;13.20;;;3.30;99.90;;;;;;5072806;28;20078;-80
2022/11/14 06:56:12;;;;;;;25.63;13.53;;;3.30;99.90;;;;;;5080380;28;20020;-80
2022/11/14 06:58:43;;;;;;;61.80;13.93;;;3.30;99.90;;;;;;5065166;28;20027;-80
2022/11/14 07:01:13;;;;;;;34.67;13.80;;;3.30;99.90;;;;;;5092556;28;20050;-80
2022/11/14 07:03:40;;;;;;;25.73;12.70;;;3.30;99.90;;;;;;5052748;28;20029;-80
2022/11/14 07:06:06;;;;;;;23.37;12.67;;;3.30;99.90;;;;;;5066081;28;20032;-80
2022/11/14 07:08:34;;;;;;;50.37;12.43;;;3.40;99.90;;;;;;5091696;28;20036;-80
2022/11/14 07:11:08;;;;;;;45.03;12.07;;;3.40;99.90;;;;;;5087472;28;20058;-80
2022/11/14 07:13:35;;;;;;;41.63;14.20;;;3.40;99.90;;;;;;5070940;28;20028;-80
2022/11/14 07:16:02;;;;;;;38.83;11.80;;;3.50;99.90;;;;;;5079461;28;20052;-80
2022/11/14 07:18:32;;;;;;;23.00;12.77;;;3.40;99.90;;;;;;5092846;28;20027;-80
2022/11/14 07:21:04;;;;;;;75.27;13.90;;;3.50;99.90;;;;;;5092413;28;20040;-82
2022/11/14 07:23:31;;;;;;;49.60;15.13;;;3.50;99.90;;;;;;5091964;28;20468;-82
2022/11/14 07:26:08;;;;;;;42.60;14.67;;;3.50;99.90;;;;;;5076378;28;20032;-82
2022/11/14 07:28:35;;;;;;;115.53;14.33;;;3.50;99.90;;;;;;5073046;28;20033;-82
2022/11/14 07:31:06;;;;;;;113.00;14.43;;;3.60;99.90;;;;;;5072359;28;20020;-80
2022/11/14 07:33:32;;;;;;;128.00;14.60;;;3.60;99.90;;;;;;5087304;28;20020;-80
2022/11/14 07:35:58;;;;;;;131.13;14.43;;;3.50;99.90;;;;;;5084316;28;20028;-80
2022/11/14 07:38:23;;;;;;;28.43;13.67;;;3.50;99.90;;;;;;5072781;28;20524;-80
2022/11/14 07:40:57;;;;;;;82.30;17.20;;;3.50;99.90;;;;;;5069590;28;20016;-81
2022/11/14 07:43:23;;;;;;;30.53;13.33;;;3.60;99.90;;;;;;5053247;28;20043;-80
2022/11/14 07:45:48;;;;;;;56.30;13.80;;;3.60;99.90;;;;;;5070381;28;20028;-79
2022/11/14 07:48:15;;;;;;;60.10;13.90;;;3.60;99.90;;;;;;5072448;28;20052;-78
2022/11/14 07:50:41;;;;;;;23.33;11.67;;;3.70;99.90;;;;;;5069663;28;20155;-79
2022/11/14 07:53:06;;;;;;;41.17;13.40;;;3.70;99.90;;;;;;5069779;28;20107;-79
2022/11/14 07:55:34;;;;;;;44.27;13.53;;;3.70;99.90;;;;;;5069041;28;20486;-78
2022/11/14 07:58:00;;;;;;;67.93;14.43;;;3.80;99.90;;;;;;5053147;28;20032;-83
2022/11/14 08:00:25;;;;;;;112.03;15.70;;;3.90;99.90;;;;;;5068731;28;20031;-82
2022/11/14 08:02:51;;;;;;;62.97;16.63;;;3.90;99.90;;;;;;5053875;28;20721;-82
2022/11/14 08:05:17;;;;;;;53.90;15.93;;;3.90;99.90;;;;;;5070873;28;20035;-83
2022/11/14 08:07:43;;;;;;;52.93;16.10;;;3.90;99.90;;;;;;5073664;28;20021;-82
2022/11/14 08:10:10;;;;;;;67.07;17.70;;;4.00;99.90;;;;;;5063712;28;20029;-82
2022/11/14 08:12:38;;;;;;;48.80;18.00;;;4.00;99.90;;;;;;5064683;28;20361;-80
2022/11/14 08:15:06;;;;;;;66.80;17.67;;;4.10;99.90;;;;;;5055562;28;20027;-81
2022/11/14 08:17:31;;;;;;;82.43;23.67;;;4.10;99.90;;;;;;5058599;28;20659;-80
2022/11/14 08:19:57;;;;;;;119.03;51.00;;;4.10;99.90;;;;;;5044540;28;20123;-80
2022/11/14 08:22:23;;;;;;;124.97;48.30;;;4.20;99.90;;;;;;5073229;28;20508;-80
2022/11/14 08:24:48;;;;;;;60.73;20.40;;;4.30;99.90;;;;;;5070100;28;20024;-80
2022/11/14 08:27:14;;;;;;;43.20;16.60;;;4.40;99.90;;;;;;5070427;28;20499;-80
2022/11/14 08:29:39;;;;;;;41.37;15.40;;;4.60;99.90;;;;;;5070460;28;20020;-80
2022/11/14 08:32:05;;;;;;;35.77;14.73;;;4.70;99.90;;;;;;5048757;28;20083;-79
2022/11/14 08:34:31;;;;;;;55.43;15.57;;;4.80;99.90;;;;;;5066147;28;20016;-80
2022/11/14 08:36:57;;;;;;;40.20;16.33;;;4.80;99.90;;;;;;5069629;28;20021;-80
2022/11/14 08:39:23;;;;;;;46.73;15.23;;;4.70;99.90;;;;;;5071450;28;20040;-80
2022/11/14 08:41:48;;;;;;;33.83;15.20;;;4.70;99.90;;;;;;5061593;28;20437;-81
2022/11/14 08:44:14;;;;;;;32.53;17.83;;;4.60;99.90;;;;;;5068651;28;20039;-80
2022/11/14 08:46:39;;;;;;;23.47;17.27;;;4.60;99.90;;;;;;5067984;28;20090;-80
2022/11/14 08:49:05;;;;;;;27.47;16.50;;;4.60;99.90;;;;;;5056113;28;20049;-80
2022/11/14 08:51:31;;;;;;;29.47;16.20;;;4.70;99.90;;;;;;5053869;28;20097;-80
2022/11/14 08:53:56;;;;;;;34.43;16.93;;;4.80;99.90;;;;;;5058263;28;20029;-80
2022/11/14 08:56:22;;;;;;;25.63;16.37;;;4.90;99.90;;;;;;5073654;28;20618;-80
2022/11/14 08:58:47;;;;;;;40.27;18.40;;;4.90;99.90;;;;;;5062221;28;20409;-81
2022/11/14 09:01:13;;;;;;;29.43;16.50;;;5.00;99.90;;;;;;5054388;28;20029;-80
2022/11/14 09:03:38;;;;;;;35.80;16.57;;;5.00;99.90;;;;;;5062087;28;20039;-81
2022/11/14 09:06:04;;;;;;;59.20;22.33;;;5.00;99.90;;;;;;5065366;28;20056;-80
2022/11/14 09:08:30;;;;;;;47.30;23.13;;;5.00;99.90;;;;;;5065935;28;20376;-80
2022/11/14 09:11:00;;;;;;;63.67;23.77;;;5.00;99.90;;;;;;5061565;28;20053;-80
2022/11/14 09:13:26;;;;;;;38.77;20.47;;;5.00;99.90;;;;;;5054441;28;20079;-80
2022/11/14 09:15:52;;;;;;;34.57;18.83;;;5.00;99.90;;;;;;5054901;28;20020;-80
2022/11/14 09:18:17;;;;;;;30.77;18.30;;;5.00;99.90;;;;;;5060932;28;20090;-80
2022/11/14 09:20:43;;;;;;;34.40;17.87;;;5.00;99.90;;;;;;5049557;28;20616;-80
2022/11/14 09:23:09;;;;;;;30.70;17.40;;;5.00;99.90;;;;;;5059422;28;20028;-80
2022/11/14 09:25:35;;;;;;;22.73;17.07;;;5.10;99.90;;;;;;5052816;28;20028;-80
2022/11/14 09:28:08;;;;;;;29.50;17.80;;;5.00;99.90;;;;;;5060177;28;20024;-80
2022/11/14 09:30:35;;;;;;;30.53;16.87;;;5.00;99.90;;;;;;5061533;28;20032;-80
2022/11/14 09:33:02;;;;;;;22.47;15.77;;;5.00;99.90;;;;;;5068221;28;20022;-79
2022/11/14 09:35:29;;;;;;;20.87;16.13;;;5.10;99.90;;;;;;5077403;28;20021;-79
2022/11/14 09:38:02;;;;;;;22.67;16.20;;;5.10;99.90;;;;;;5072453;28;20059;-79
2022/11/14 09:40:31;;;;;;;22.97;16.00;;;5.20;99.90;;;;;;5072105;28;20021;-79
2022/11/14 09:43:15;;;;;;;22.47;16.23;;;5.40;99.90;;;;;;5072094;28;20027;-79
2022/11/14 09:45:47;;;;;;;26.13;16.63;;;5.50;99.90;;;;;;5072450;28;20099;-79
2022/11/14 09:48:17;;;;;;;54.57;17.73;;;5.60;99.90;;;;;;5075446;28;20063;-79
2022/11/14 09:50:53;;;;;;;21.47;16.03;;;5.70;99.90;;;;;;5079237;28;20066;-79
2022/11/14 09:53:24;;;;;;;20.90;15.53;;;5.70;99.90;;;;;;5069919;28;20082;-79
2022/11/14 09:55:51;;;;;;;19.90;15.20;;;5.70;99.90;;;;;;5068251;28;20107;-79
2022/11/14 09:58:20;;;;;;;18.77;15.03;;;5.70;99.90;;;;;;5068545;28;20761;-79
2022/11/14 10:01:19;;;;;;;17.20;14.27;;;5.70;99.90;;;;;;5066297;28;20036;-79
2022/11/14 10:04:08;;;;;;;16.67;13.83;;;5.90;99.90;;;;;;5066369;28;20028;-79
2022/11/14 10:06:52;;;;;;;19.40;16.20;;;5.90;99.90;;;;;;5052157;28;20034;-79
2022/11/14 10:09:39;;;;;;;22.30;18.60;;;6.00;99.90;;;;;;5058321;28;20087;-79
2022/11/14 10:12:11;;;;;;;19.10;15.10;;;6.00;99.90;;;;;;5058982;28;20096;-79
2022/11/14 10:14:43;;;;;;;18.97;15.03;;;6.10;99.90;;;;;;5058110;28;20134;-79
2022/11/14 10:17:33;;;;;;;18.30;15.33;;;6.10;99.90;;;;;;5066154;28;20543;-79
2022/11/14 10:20:10;;;;;;;19.03;14.00;;;6.30;99.90;;;;;;5054955;28;20025;-79
2022/11/14 10:23:00;;;;;;;50.93;31.10;;;6.40;99.90;;;;;;5065224;28;20031;-79
2022/11/14 10:25:32;;;;;;;19.90;15.60;;;6.60;99.90;;;;;;5063339;28;20086;-82
2022/11/14 10:28:39;;;;;;;19.87;15.67;;;6.70;99.90;;;;;;5059641;28;20103;-82
2022/11/14 10:31:39;;;;;;;49.60;28.93;;;6.90;99.90;;;;;;5007873;28;20627;-79
2022/11/14 10:34:14;;;;;;;22.40;17.23;;;7.00;99.90;;;;;;5066364;28;20021;-78
2022/11/14 10:36:56;;;;;;;19.55;15.50;;;6.90;99.90;;;;;;5066779;28;20032;-79
2022/11/14 10:39:40;;;;;;;19.90;16.40;;;6.80;99.90;;;;;;5059303;28;20121;-79
2022/11/14 10:42:14;;;;;;;16.47;14.03;;;6.80;99.90;;;;;;5065480;28;20020;-79
2022/11/14 10:44:52;;;;;;;14.50;12.23;;;6.80;99.90;;;;;;5062856;28;20539;-79
2022/11/14 10:47:21;;;;;;;14.70;12.47;;;6.90;99.90;;;;;;5051388;28;20124;-79
2022/11/14 10:49:51;;;;;;;15.47;13.87;;;6.90;99.90;;;;;;5056870;28;20025;-79
2022/11/14 10:52:21;;;;;;;14.43;12.30;;;6.80;99.90;;;;;;5072224;28;20021;-81
2022/11/14 10:54:58;;;;;;;14.83;12.67;;;6.80;99.90;;;;;;5069312;28;20052;-81
2022/11/14 10:57:24;;;;;;;16.80;12.57;;;6.80;99.90;;;;;;5073018;28;20025;-81
2022/11/14 10:59:51;;;;;;;14.70;12.17;;;6.80;99.90;;;;;;5073171;28;20024;-81
2022/11/14 11:02:17;;;;;;;14.80;12.43;;;6.80;99.90;;;;;;5073106;28;20020;-81
2022/11/14 11:04:44;;;;;;;18.73;13.87;;;6.90;99.90;;;;;;5073132;28;20483;-81
2022/11/14 11:11:28;;;;;;;15.30;12.10;;;6.90;99.90;;;;;;5072930;28;20025;-81
2022/11/14 11:12:47;;;;;;;13.37;10.30;;;7.10;99.90;;;;;;5072981;28;20114;-81
2022/11/14 11:15:23;;;;;;;14.13;12.13;;;7.20;99.90;;;;;;5058195;28;20023;-81
2022/11/14 11:17:55;;;;;;;;;;;7.20;99.90;;;;;;5073108;28;20048;-81
2022/11/14 11:20:29;;;;;;;9.87;8.27;;;7.30;99.90;;;;;;5072013;28;19942;-80
2022/11/14 11:23:08;;;;;;;8.87;7.57;;;7.40;99.90;;;;;;5046295;28;20505;-81
2022/11/14 11:25:35;;;;;;;10.90;8.53;;;7.50;99.90;;;;;;5064108;28;20035;-82
2022/11/14 11:28:20;;;;;;;10.10;8.13;;;7.60;99.90;;;;;;5064369;28;20469;-81
2022/11/14 11:31:00;;;;;;;8.85;7.35;;;7.80;99.90;;;;;;5067399;28;20025;-81
2022/11/14 11:33:29;;;;;;;8.70;7.00;;;7.80;99.90;;;;;;5058524;28;20025;-81
2022/11/14 11:36:16;;;;;;;9.20;7.27;;;7.90;99.90;;;;;;5065703;28;20036;-80
2022/11/14 11:38:44;;;;;;;7.73;6.90;;;7.90;99.90;;;;;;5058800;28;20052;-81
2022/11/14 11:41:21;;;;;;;8.27;6.73;;;8.00;99.90;;;;;;5067213;28;20031;-81
2022/11/14 11:43:54;;;;;;;7.17;5.80;;;8.20;99.90;;;;;;5058747;28;20072;-80
2022/11/14 11:46:34;;;;;;;8.40;5.73;;;8.40;99.90;;;;;;5065566;28;20032;-81
2022/11/14 11:49:09;;;;;;;7.93;5.80;;;8.60;99.90;;;;;;5063495;28;20132;-81
2022/11/14 11:51:39;;;;;;;6.78;6.03;;;8.60;99.90;;;;;;5055873;28;20591;-81
2022/11/14 11:54:17;;;;;;;8.47;6.60;;;8.80;99.90;;;;;;5070587;28;20131;-81
2022/11/14 11:56:47;;;;;;;7.80;6.73;;;8.90;99.90;;;;;;5071375;28;20100;-81
2022/11/14 11:59:16;;;;;;;7.87;5.83;;;9.00;99.90;;;;;;5075022;28;20069;-81
2022/11/14 12:01:41;;;;;;;7.23;6.40;;;9.20;99.90;;;;;;5069839;28;20039;-81
2022/11/14 12:04:07;;;;;;;7.33;6.40;;;9.30;99.90;;;;;;5065179;28;20723;-81
2022/11/14 12:06:42;;;;;;;8.37;6.47;;;9.40;99.90;;;;;;5072462;28;20044;-81
2022/11/14 12:09:19;;;;;;;8.23;6.15;;;9.40;99.90;;;;;;5065747;28;20064;-80
2022/11/14 12:11:54;;;;;;;6.93;6.20;;;9.60;99.90;;;;;;5055786;28;20025;-81
2022/11/14 12:14:38;;;;;;;8.38;5.82;;;9.70;99.90;;;;;;5066720;28;20016;-80
2022/11/14 12:17:31;;;;;;;7.00;5.57;;;9.90;99.90;;;;;;5053958;28;20576;-81
2022/11/14 12:20:03;;;;;;;6.60;5.43;;;9.90;99.90;;;;;;5062594;28;20517;-80
2022/11/14 12:23:06;;;;;;;5.75;4.88;;;10.00;99.90;;;;;;5054391;28;20496;-81
2022/11/14 12:25:38;;;;;;;5.07;4.55;;;10.20;99.90;;;;;;5056455;28;20379;-81
2022/11/14 12:28:19;;;;;;;6.82;5.03;;;10.50;99.90;;;;;;5053626;28;20024;-81
2022/11/14 12:30:48;;;;;;;6.18;4.75;;;10.60;99.90;;;;;;5065350;28;20021;-80
2022/11/14 12:33:25;;;;;;;6.60;4.60;;;10.50;99.90;;;;;;5069867;28;20056;-80
2022/11/14 12:35:55;;;;;;;4.82;4.30;;;10.70;99.90;;;;;;5069857;28;20028;-80
2022/11/14 12:38:22;;;;;;;5.55;4.70;;;10.70;99.90;;;;;;5074088;28;20027;-80
2022/11/14 12:40:56;;;;;;;5.28;4.18;;;10.80;99.90;;;;;;5069822;28;20419;-81
2022/11/14 12:43:25;;;;;;;6.65;4.65;;;10.90;99.90;;;;;;5069833;28;20024;-80
2022/11/14 12:45:50;;;;;;;6.07;4.00;;;11.10;99.90;;;;;;5069799;28;20419;-80
2022/11/14 12:48:43;;;;;;;5.32;3.83;;;11.10;99.90;;;;;;5069542;28;20041;-80
2022/11/14 12:51:24;;;;;;;4.93;3.90;;;11.20;99.90;;;;;;5066679;28;20044;-80